sensor_id;sensor_type;location;lat;lon;timestamp;pressure;altitude;pressure_sealevel;temperature;humidity
77590;BME280;66746;51.328;12.332;2023-02-28T00:00:00;101894.63;;;0.18;68.81
77590;BME280;66746;51.328;12.332;2023-02-28T00:02:30;101887.47;;;0.16;69.24
77590;BME280;66746;51.328;12.332;2023-02-28T00:04:56;101888.31;;;0.15;69.28
77590;BME280;66746;51.328;12.332;2023-02-28T00:07:25;101872.16;;;0.10;71.83
77590;BME280;66746;51.328;12.332;2023-02-28T00:09:58;101878.63;;;0.18;68.97
77590;BME280;66746;51.328;12.332;2023-02-28T00:12:25;101863.38;;;0.14;70.27
77590;BME280;66746;51.328;12.332;2023-02-28T00:14:52;101856.94;;;0.06;69.50
77590;BME280;66746;51.328;12.332;2023-02-28T00:17:19;101877.50;;;0.10;70.73
77590;BME280;66746;51.328;12.332;2023-02-28T00:19:46;101863.97;;;0.04;71.71
77590;BME280;66746;51.328;12.332;2023-02-28T00:22:13;101858.44;;;-0.04;70.47
77590;BME280;66746;51.328;12.332;2023-02-28T00:24:39;101874.91;;;0.12;71.80
77590;BME280;66746;51.328;12.332;2023-02-28T00:27:07;101873.06;;;0.11;70.32
77590;BME280;66746;51.328;12.332;2023-02-28T00:29:34;101867.94;;;0.18;71.14
77590;BME280;66746;51.328;12.332;2023-02-28T00:32:00;101873.09;;;0.12;69.95
77590;BME280;66746;51.328;12.332;2023-02-28T00:34:27;101854.88;;;-0.04;69.95
77590;BME280;66746;51.328;12.332;2023-02-28T00:36:57;101873.84;;;0.07;69.35
77590;BME280;66746;51.328;12.332;2023-02-28T00:39:24;101874.75;;;0.07;69.04
77590;BME280;66746;51.328;12.332;2023-02-28T00:41:51;101873.00;;;0.08;70.42
77590;BME280;66746;51.328;12.332;2023-02-28T00:44:18;101873.09;;;0.12;70.66
77590;BME280;66746;51.328;12.332;2023-02-28T00:46:46;101853.19;;;-0.02;71.29
77590;BME280;66746;51.328;12.332;2023-02-28T00:49:13;101857.81;;;0.05;69.97
77590;BME280;66746;51.328;12.332;2023-02-28T00:51:41;101834.38;;;-0.07;70.02
77590;BME280;66746;51.328;12.332;2023-02-28T00:54:07;101866.16;;;0.17;72.61
77590;BME280;66746;51.328;12.332;2023-02-28T00:56:34;101844.47;;;0.05;69.40
77590;BME280;66746;51.328;12.332;2023-02-28T00:59:00;101857.81;;;0.05;69.68
77590;BME280;66746;51.328;12.332;2023-02-28T01:01:28;101865.94;;;0.10;69.91
77590;BME280;66746;51.328;12.332;2023-02-28T01:03:58;101852.38;;;0.02;69.36
77590;BME280;66746;51.328;12.332;2023-02-28T01:06:26;101874.81;;;0.10;70.56
77590;BME280;66746;51.328;12.332;2023-02-28T01:08:53;101847.72;;;-0.05;70.70
77590;BME280;66746;51.328;12.332;2023-02-28T01:11:25;101847.72;;;-0.05;71.91
77590;BME280;66746;51.328;12.332;2023-02-28T01:13:54;101878.38;;;0.09;70.48
77590;BME280;66746;51.328;12.332;2023-02-28T01:16:21;101840.44;;;-0.12;70.50
77590;BME280;66746;51.328;12.332;2023-02-28T01:18:59;101864.78;;;0.00;70.30
77590;BME280;66746;51.328;12.332;2023-02-28T01:21:27;101860.28;;;-0.01;71.20
77590;BME280;66746;51.328;12.332;2023-02-28T01:23:56;101858.75;;;0.07;72.19
77590;BME280;66746;51.328;12.332;2023-02-28T01:26:23;101857.00;;;0.08;70.89
77590;BME280;66746;51.328;12.332;2023-02-28T01:28:50;101842.50;;;-0.02;70.64
77590;BME280;66746;51.328;12.332;2023-02-28T01:31:18;101847.03;;;0.02;70.78
77590;BME280;66746;51.328;12.332;2023-02-28T01:33:46;101867.78;;;0.12;71.04
77590;BME280;66746;51.328;12.332;2023-02-28T01:36:15;101874.81;;;0.10;71.20
77590;BME280;66746;51.328;12.332;2023-02-28T01:38:43;101867.78;;;0.12;71.19
77590;BME280;66746;51.328;12.332;2023-02-28T01:41:15;101856.94;;;0.06;70.82
77590;BME280;66746;51.328;12.332;2023-02-28T01:43:58;101853.50;;;0.10;72.69
77590;BME280;66746;51.328;12.332;2023-02-28T01:46:25;101869.59;;;0.13;72.12
77590;BME280;66746;51.328;12.332;2023-02-28T01:48:57;101840.81;;;0.02;71.54
77590;BME280;66746;51.328;12.332;2023-02-28T01:51:29;101850.91;;;0.12;71.47
77590;BME280;66746;51.328;12.332;2023-02-28T01:54:00;101849.06;;;0.11;72.43
77590;BME280;66746;51.328;12.332;2023-02-28T01:56:29;101829.25;;;0.01;71.37
77590;BME280;66746;51.328;12.332;2023-02-28T01:58:57;101848.09;;;0.07;71.63
77590;BME280;66746;51.328;12.332;2023-02-28T02:01:25;101851.69;;;0.09;71.82
77590;BME280;66746;51.328;12.332;2023-02-28T02:03:56;101839.84;;;-0.02;71.30
77590;BME280;66746;51.328;12.332;2023-02-28T02:06:27;101827.31;;;-0.05;72.02
77590;BME280;66746;51.328;12.332;2023-02-28T02:08:55;101813.59;;;-0.18;70.74
77590;BME280;66746;51.328;12.332;2023-02-28T02:11:27;101835.34;;;-0.03;71.53
77590;BME280;66746;51.328;12.332;2023-02-28T02:17:07;101827.88;;;-0.16;71.74
77590;BME280;66746;51.328;12.332;2023-02-28T02:19:53;101836.81;;;-0.14;71.42
77590;BME280;66746;51.328;12.332;2023-02-28T02:22:51;101834.22;;;-0.11;72.76
77590;BME280;66746;51.328;12.332;2023-02-28T02:25:29;101806.56;;;-0.16;72.74
77590;BME280;66746;51.328;12.332;2023-02-28T02:28:30;101832.66;;;-0.05;72.69
77590;BME280;66746;51.328;12.332;2023-02-28T02:31:28;101803.66;;;-0.24;72.91
77590;BME280;66746;51.328;12.332;2023-02-28T02:34:22;101824.63;;;-0.06;72.54
77590;BME280;66746;51.328;12.332;2023-02-28T02:37:00;101805.47;;;-0.23;72.29
77590;BME280;66746;51.328;12.332;2023-02-28T02:39:31;101818.06;;;-0.17;72.73
77590;BME280;66746;51.328;12.332;2023-02-28T02:42:02;101807.97;;;-0.27;73.61
77590;BME280;66746;51.328;12.332;2023-02-28T02:44:37;101822.44;;;-0.19;73.38
77590;BME280;66746;51.328;12.332;2023-02-28T02:47:09;101821.66;;;-0.15;73.24
77590;BME280;66746;51.328;12.332;2023-02-28T02:49:40;101833.28;;;-0.13;74.57
77590;BME280;66746;51.328;12.332;2023-02-28T02:52:11;101813.31;;;-0.27;73.87
77590;BME280;66746;51.328;12.332;2023-02-28T02:54:40;101822.06;;;-0.31;73.36
77590;BME280;66746;51.328;12.332;2023-02-28T02:57:11;101850.63;;;-0.27;73.29
77590;BME280;66746;51.328;12.332;2023-02-28T02:59:41;101815.56;;;-0.41;74.39
77590;BME280;66746;51.328;12.332;2023-02-28T03:02:11;101836.25;;;-0.34;74.16
77590;BME280;66746;51.328;12.332;2023-02-28T03:04:43;101834.19;;;-0.42;75.18
77590;BME280;66746;51.328;12.332;2023-02-28T03:07:10;101805.16;;;-0.63;73.96
77590;BME280;66746;51.328;12.332;2023-02-28T03:09:36;101829.41;;;-0.54;75.42
77590;BME280;66746;51.328;12.332;2023-02-28T03:12:09;101841.03;;;-0.50;73.97
77590;BME280;66746;51.328;12.332;2023-02-28T03:14:47;101842.75;;;-0.52;74.23
77590;BME280;66746;51.328;12.332;2023-02-28T03:17:27;101840.84;;;-0.56;74.42
77590;BME280;66746;51.328;12.332;2023-02-28T03:20:05;101843.63;;;-0.53;74.48
77590;BME280;66746;51.328;12.332;2023-02-28T03:22:46;101843.47;;;-0.58;74.24
77590;BME280;66746;51.328;12.332;2023-02-28T03:25:22;101848.00;;;-0.55;74.72
77590;BME280;66746;51.328;12.332;2023-02-28T03:28:00;101845.34;;;-0.55;75.52
77590;BME280;66746;51.328;12.332;2023-02-28T03:30:35;101835.44;;;-0.59;75.23
77590;BME280;66746;51.328;12.332;2023-02-28T03:33:06;101846.22;;;-0.55;74.99
77590;BME280;66746;51.328;12.332;2023-02-28T03:35:38;101842.56;;;-0.58;74.28
77590;BME280;66746;51.328;12.332;2023-02-28T03:38:09;101832.56;;;-0.67;73.73
77590;BME280;66746;51.328;12.332;2023-02-28T03:40:36;101847.06;;;-0.57;75.28
77590;BME280;66746;51.328;12.332;2023-02-28T03:43:09;101848.81;;;-0.58;76.05
77590;BME280;66746;51.328;12.332;2023-02-28T03:45:38;101837.34;;;-0.55;76.08
77590;BME280;66746;51.328;12.332;2023-02-28T03:48:11;101839.97;;;-0.57;76.03
77590;BME280;66746;51.328;12.332;2023-02-28T03:50:42;101814.56;;;-0.74;76.04
77590;BME280;66746;51.328;12.332;2023-02-28T03:53:12;101829.81;;;-0.68;76.28
77590;BME280;66746;51.328;12.332;2023-02-28T03:55:42;101826.28;;;-0.69;77.02
77590;BME280;66746;51.328;12.332;2023-02-28T03:58:15;101852.25;;;-0.60;76.76
77590;BME280;66746;51.328;12.332;2023-02-28T04:00:49;101853.38;;;-0.54;77.33
77590;BME280;66746;51.328;12.332;2023-02-28T04:03:19;101848.00;;;-0.55;76.13
77590;BME280;66746;51.328;12.332;2023-02-28T04:05:50;101846.19;;;-0.56;77.74
77590;BME280;66746;51.328;12.332;2023-02-28T04:08:17;101846.28;;;-0.53;76.99
77590;BME280;66746;51.328;12.332;2023-02-28T04:10:48;101849.91;;;-0.51;76.19
77590;BME280;66746;51.328;12.332;2023-02-28T04:13:16;101831.72;;;-0.64;75.89
77590;BME280;66746;51.328;12.332;2023-02-28T04:15:43;101856.03;;;-0.54;75.54
77590;BME280;66746;51.328;12.332;2023-02-28T04:18:09;101848.84;;;-0.56;75.93
77590;BME280;66746;51.328;12.332;2023-02-28T04:20:36;101836.06;;;-0.68;75.32
77590;BME280;66746;51.328;12.332;2023-02-28T04:23:04;101847.91;;;-0.58;75.78
77590;BME280;66746;51.328;12.332;2023-02-28T04:25:30;101833.53;;;-0.63;75.71
77590;BME280;66746;51.328;12.332;2023-02-28T04:27:57;101861.44;;;-0.51;75.99
77590;BME280;66746;51.328;12.332;2023-02-28T04:30:23;101856.19;;;-0.49;74.30
77590;BME280;66746;51.328;12.332;2023-02-28T04:32:50;101835.34;;;-0.62;75.04
77590;BME280;66746;51.328;12.332;2023-02-28T04:35:16;101850.75;;;-0.52;74.27
77590;BME280;66746;51.328;12.332;2023-02-28T04:37:43;101869.59;;;-0.46;74.71
77590;BME280;66746;51.328;12.332;2023-02-28T04:40:11;101867.78;;;-0.47;74.26
77590;BME280;66746;51.328;12.332;2023-02-28T04:42:38;101846.28;;;-0.53;74.62
77590;BME280;66746;51.328;12.332;2023-02-28T04:45:05;101864.38;;;-0.43;74.20
77590;BME280;66746;51.328;12.332;2023-02-28T04:47:32;101847.13;;;-0.54;73.36
77590;BME280;66746;51.328;12.332;2023-02-28T04:49:58;101848.75;;;-0.59;73.53
77590;BME280;66746;51.328;12.332;2023-02-28T04:52:27;101861.56;;;-0.48;74.50
77590;BME280;66746;51.328;12.332;2023-02-28T04:54:54;101850.63;;;-0.57;73.84
77590;BME280;66746;51.328;12.332;2023-02-28T04:57:21;101868.44;;;-0.54;73.63
77590;BME280;66746;51.328;12.332;2023-02-28T04:59:49;101856.63;;;-0.62;74.34
77590;BME280;66746;51.328;12.332;2023-02-28T05:02:16;101865.59;;;-0.60;74.14
77590;BME280;66746;51.328;12.332;2023-02-28T05:04:42;101865.50;;;-0.63;73.52
77590;BME280;66746;51.328;12.332;2023-02-28T05:07:09;101860.19;;;-0.63;72.88
77590;BME280;66746;51.328;12.332;2023-02-28T05:09:35;101863.75;;;-0.63;73.06
77590;BME280;66746;51.328;12.332;2023-02-28T05:12:02;101866.34;;;-0.64;73.19
77590;BME280;66746;51.328;12.332;2023-02-28T05:14:30;101843.88;;;-0.72;74.37
77590;BME280;66746;51.328;12.332;2023-02-28T05:16:58;101877.34;;;-0.54;73.95
77590;BME280;66746;51.328;12.332;2023-02-28T05:19:27;101875.59;;;-0.53;71.77
77590;BME280;66746;51.328;12.332;2023-02-28T05:21:54;101865.38;;;-0.66;72.13
77590;BME280;66746;51.328;12.332;2023-02-28T05:24:21;101852.84;;;-0.70;73.06
77590;BME280;66746;51.328;12.332;2023-02-28T05:26:49;101866.31;;;-0.66;72.53
77590;BME280;66746;51.328;12.332;2023-02-28T05:29:15;101871.94;;;-0.57;72.95
77590;BME280;66746;51.328;12.332;2023-02-28T05:31:48;101872.94;;;-0.53;71.62
77590;BME280;66746;51.328;12.332;2023-02-28T05:34:23;101871.06;;;-0.56;71.72
77590;BME280;66746;51.328;12.332;2023-02-28T05:36:52;101861.78;;;-0.68;71.70
77590;BME280;66746;51.328;12.332;2023-02-28T05:39:18;101883.59;;;-0.53;73.09
77590;BME280;66746;51.328;12.332;2023-02-28T05:41:44;101888.00;;;-0.54;70.69
77590;BME280;66746;51.328;12.332;2023-02-28T05:44:11;101875.34;;;-0.61;71.40
77590;BME280;66746;51.328;12.332;2023-02-28T05:46:37;101869.91;;;-0.64;71.86
77590;BME280;66746;51.328;12.332;2023-02-28T05:49:05;101875.16;;;-0.67;71.20
77590;BME280;66746;51.328;12.332;2023-02-28T05:51:32;101887.91;;;-0.57;70.93
77590;BME280;66746;51.328;12.332;2023-02-28T05:53:59;101856.09;;;-0.80;71.57
77590;BME280;66746;51.328;12.332;2023-02-28T05:56:26;101890.31;;;-0.64;72.77
77590;BME280;66746;51.328;12.332;2023-02-28T05:58:52;101889.34;;;-0.66;69.95
77590;BME280;66746;51.328;12.332;2023-02-28T06:01:23;101896.66;;;-0.61;70.10
77590;BME280;66746;51.328;12.332;2023-02-28T06:03:50;101899.47;;;-0.56;71.26
77590;BME280;66746;51.328;12.332;2023-02-28T06:06:17;101882.31;;;-0.64;71.83
77590;BME280;66746;51.328;12.332;2023-02-28T06:08:44;101903.06;;;-0.54;70.82
77590;BME280;66746;51.328;12.332;2023-02-28T06:11:11;101909.97;;;-0.61;70.43
77590;BME280;66746;51.328;12.332;2023-02-28T06:13:38;101901.69;;;-0.70;69.51
77590;BME280;66746;51.328;12.332;2023-02-28T06:16:05;101915.16;;;-0.65;70.41
77590;BME280;66746;51.328;12.332;2023-02-28T06:18:31;101920.38;;;-0.68;69.60
77590;BME280;66746;51.328;12.332;2023-02-28T06:20:58;101899.56;;;-0.80;69.82
77590;BME280;66746;51.328;12.332;2023-02-28T06:23:28;101891.47;;;-0.84;69.74
77590;BME280;66746;51.328;12.332;2023-02-28T06:25:55;101924.69;;;-0.72;69.97
77590;BME280;66746;51.328;12.332;2023-02-28T06:28:21;101908.72;;;-0.72;70.22
77590;BME280;66746;51.328;12.332;2023-02-28T06:30:48;101926.72;;;-0.65;69.62
77590;BME280;66746;51.328;12.332;2023-02-28T06:33:14;101929.50;;;-0.60;69.60
77590;BME280;66746;51.328;12.332;2023-02-28T06:35:43;101917.91;;;-0.62;69.57
77590;BME280;66746;51.328;12.332;2023-02-28T06:38:10;101940.69;;;-0.45;69.45
77590;BME280;66746;51.328;12.332;2023-02-28T06:40:37;101943.69;;;-0.33;68.86
77590;BME280;66746;51.328;12.332;2023-02-28T06:43:04;101932.22;;;-0.32;68.84
77590;BME280;66746;51.328;12.332;2023-02-28T06:45:30;101945.81;;;-0.23;69.70
77590;BME280;66746;51.328;12.332;2023-02-28T06:47:57;101947.06;;;-0.12;69.34
77590;BME280;66746;51.328;12.332;2023-02-28T06:50:23;101932.91;;;-0.10;67.63
77590;BME280;66746;51.328;12.332;2023-02-28T06:52:50;101953.03;;;0.09;68.93
77590;BME280;66746;51.328;12.332;2023-02-28T06:55:17;101924.47;;;0.05;66.78
77590;BME280;66746;51.328;12.332;2023-02-28T06:57:44;101922.03;;;0.13;66.52
77590;BME280;66746;51.328;12.332;2023-02-28T07:00:12;101949.44;;;0.38;67.51
77590;BME280;66746;51.328;12.332;2023-02-28T07:02:39;101958.72;;;0.51;66.98
77590;BME280;66746;51.328;12.332;2023-02-28T07:05:06;101957.72;;;0.47;65.65
77590;BME280;66746;51.328;12.332;2023-02-28T07:07:32;101953.63;;;0.60;66.30
77590;BME280;66746;51.328;12.332;2023-02-28T07:09:59;101949.97;;;0.56;65.94
77590;BME280;66746;51.328;12.332;2023-02-28T07:12:25;101958.47;;;0.74;64.92
77590;BME280;66746;51.328;12.332;2023-02-28T07:14:53;101962.34;;;0.85;64.89
77590;BME280;66746;51.328;12.332;2023-02-28T07:17:19;101965.56;;;1.05;63.69
77590;BME280;66746;51.328;12.332;2023-02-28T07:19:46;101948.56;;;1.02;63.36
77590;BME280;66746;51.328;12.332;2023-02-28T07:22:12;101930.03;;;1.08;64.77
77590;BME280;66746;51.328;12.332;2023-02-28T07:24:41;101948.47;;;1.33;61.58
77590;BME280;66746;51.328;12.332;2023-02-28T07:27:07;101956.91;;;1.51;61.17
77590;BME280;66746;51.328;12.332;2023-02-28T07:29:34;101962.50;;;1.60;61.60
77590;BME280;66746;51.328;12.332;2023-02-28T07:32:02;101958.91;;;1.58;60.89
77590;BME280;66746;51.328;12.332;2023-02-28T07:34:28;101953.41;;;1.52;60.11
77590;BME280;66746;51.328;12.332;2023-02-28T07:36:55;101941.13;;;1.60;61.27
77590;BME280;66746;51.328;12.332;2023-02-28T07:39:22;101938.69;;;1.70;59.25
77590;BME280;66746;51.328;12.332;2023-02-28T07:41:48;101955.88;;;1.80;59.10
77590;BME280;66746;51.328;12.332;2023-02-28T07:44:15;101962.53;;;1.99;60.58
77590;BME280;66746;51.328;12.332;2023-02-28T07:46:41;101942.06;;;2.01;59.39
77590;BME280;66746;51.328;12.332;2023-02-28T07:49:09;101969.25;;;2.20;57.75
77590;BME280;66746;51.328;12.332;2023-02-28T07:51:36;101969.44;;;2.29;57.48
77590;BME280;66746;51.328;12.332;2023-02-28T07:54:14;101957.09;;;2.36;56.66
77590;BME280;66746;51.328;12.332;2023-02-28T07:56:42;101946.41;;;2.37;57.19
77590;BME280;66746;51.328;12.332;2023-02-28T07:59:10;101950.91;;;2.38;54.50
77590;BME280;66746;51.328;12.332;2023-02-28T08:01:37;101960.97;;;2.50;56.43
77590;BME280;66746;51.328;12.332;2023-02-28T08:04:11;101956.66;;;2.56;55.88
77590;BME280;66746;51.328;12.332;2023-02-28T08:06:43;101963.25;;;2.74;56.31
77590;BME280;66746;51.328;12.332;2023-02-28T08:09:13;101964.31;;;2.82;55.34
77590;BME280;66746;51.328;12.332;2023-02-28T08:11:39;101968.28;;;3.03;53.35
77590;BME280;66746;51.328;12.332;2023-02-28T08:14:06;101948.47;;;2.94;52.82
77590;BME280;66746;51.328;12.332;2023-02-28T08:16:42;101942.66;;;3.19;53.01
77590;BME280;66746;51.328;12.332;2023-02-28T08:19:13;101959.88;;;3.33;51.43
77590;BME280;66746;51.328;12.332;2023-02-28T08:21:41;101953.16;;;3.59;50.34
77590;BME280;66746;51.328;12.332;2023-02-28T08:24:09;101953.38;;;3.73;50.71
77590;BME280;66746;51.328;12.332;2023-02-28T08:26:37;101946.47;;;3.88;49.84
77590;BME280;66746;51.328;12.332;2023-02-28T08:29:04;101949.03;;;3.79;48.24
77590;BME280;66746;51.328;12.332;2023-02-28T08:31:30;101949.03;;;3.79;48.57
77590;BME280;66746;51.328;12.332;2023-02-28T08:33:57;101951.91;;;3.91;49.60
77590;BME280;66746;51.328;12.332;2023-02-28T08:36:26;101949.41;;;4.06;48.57
77590;BME280;66746;51.328;12.332;2023-02-28T08:38:52;101947.84;;;4.23;48.42
77590;BME280;66746;51.328;12.332;2023-02-28T08:41:19;101946.16;;;4.30;47.74
77590;BME280;66746;51.328;12.332;2023-02-28T08:43:46;101947.81;;;4.19;46.85
77590;BME280;66746;51.328;12.332;2023-02-28T08:46:13;101929.81;;;4.13;48.66
77590;BME280;66746;51.328;12.332;2023-02-28T08:48:42;101953.16;;;4.17;45.26
77590;BME280;66746;51.328;12.332;2023-02-28T08:51:12;101935.25;;;4.16;46.61
77590;BME280;66746;51.328;12.332;2023-02-28T08:53:42;101925.28;;;4.09;45.66
77590;BME280;66746;51.328;12.332;2023-02-28T08:56:11;101959.94;;;4.57;46.51
77590;BME280;66746;51.328;12.332;2023-02-28T08:58:37;101955.94;;;4.25;43.24
77590;BME280;66746;51.328;12.332;2023-02-28T09:01:11;101937.25;;;4.32;44.10
77590;BME280;66746;51.328;12.332;2023-02-28T09:03:43;101939.97;;;4.34;43.74
77590;BME280;66746;51.328;12.332;2023-02-28T09:06:12;101960.78;;;4.52;44.83
77590;BME280;66746;51.328;12.332;2023-02-28T09:08:40;101951.19;;;4.73;43.76
77590;BME280;66746;51.328;12.332;2023-02-28T09:11:10;101959.47;;;4.91;44.73
77590;BME280;66746;51.328;12.332;2023-02-28T09:13:43;101947.28;;;4.47;43.22
77590;BME280;66746;51.328;12.332;2023-02-28T09:16:11;101942.84;;;4.50;43.13
77590;BME280;66746;51.328;12.332;2023-02-28T09:18:42;101943.66;;;4.43;44.85
77590;BME280;66746;51.328;12.332;2023-02-28T09:21:12;101962.47;;;4.46;44.98
77590;BME280;66746;51.328;12.332;2023-02-28T09:23:43;101957.25;;;4.56;47.84
77590;BME280;66746;51.328;12.332;2023-02-28T09:26:13;101964.69;;;4.78;44.45
77590;BME280;66746;51.328;12.332;2023-02-28T09:28:43;101929.69;;;4.72;42.76
77590;BME280;66746;51.328;12.332;2023-02-28T09:31:12;101948.56;;;4.81;46.02
77590;BME280;66746;51.328;12.332;2023-02-28T09:33:42;101970.16;;;4.87;46.17
77590;BME280;66746;51.328;12.332;2023-02-28T09:36:10;101958.41;;;4.79;45.37
77590;BME280;66746;51.328;12.332;2023-02-28T09:38:38;101946.97;;;4.98;48.05
77590;BME280;66746;51.328;12.332;2023-02-28T09:41:14;101945.88;;;4.81;43.78
77590;BME280;66746;51.328;12.332;2023-02-28T09:43:48;101962.63;;;5.41;45.24
77590;BME280;66746;51.328;12.332;2023-02-28T09:46:25;101959.34;;;4.84;44.32
77590;BME280;66746;51.328;12.332;2023-02-28T09:48:54;101934.34;;;4.89;43.46
77590;BME280;66746;51.328;12.332;2023-02-28T09:51:34;101951.97;;;5.53;45.31
77590;BME280;66746;51.328;12.332;2023-02-28T09:54:18;101965.16;;;6.46;42.85
77590;BME280;66746;51.328;12.332;2023-02-28T09:56:49;101964.00;;;5.94;41.82
77590;BME280;66746;51.328;12.332;2023-02-28T09:59:25;101970.16;;;4.88;46.39
77590;BME280;66746;51.328;12.332;2023-02-28T10:01:58;101948.19;;;4.47;48.15
77590;BME280;66746;51.328;12.332;2023-02-28T10:04:43;101963.13;;;4.29;43.81
77590;BME280;66746;51.328;12.332;2023-02-28T10:07:21;101950.06;;;4.55;44.09
77590;BME280;66746;51.328;12.332;2023-02-28T10:09:52;101944.47;;;5.17;40.32
77590;BME280;66746;51.328;12.332;2023-02-28T10:12:21;101931.53;;;5.76;42.95
77590;BME280;66746;51.328;12.332;2023-02-28T10:14:51;101945.44;;;6.49;40.62
77590;BME280;66746;51.328;12.332;2023-02-28T10:17:21;101951.03;;;7.10;38.04
77590;BME280;66746;51.328;12.332;2023-02-28T10:19:58;101951.91;;;7.09;37.51
77590;BME280;66746;51.328;12.332;2023-02-28T10:22:29;101929.09;;;6.15;38.76
77590;BME280;66746;51.328;12.332;2023-02-28T10:24:59;101928.28;;;5.11;43.73
77590;BME280;66746;51.328;12.332;2023-02-28T10:27:29;101950.78;;;5.21;40.49
77590;BME280;66746;51.328;12.332;2023-02-28T10:29:58;101947.59;;;4.73;41.92
77590;BME280;66746;51.328;12.332;2023-02-28T10:32:27;101953.31;;;5.04;42.29
77590;BME280;66746;51.328;12.332;2023-02-28T10:34:57;101928.00;;;4.81;44.58
77590;BME280;66746;51.328;12.332;2023-02-28T10:37:25;101960.38;;;4.93;45.64
77590;BME280;66746;51.328;12.332;2023-02-28T10:39:52;101919.16;;;4.97;41.93
77590;BME280;66746;51.328;12.332;2023-02-28T10:42:22;101926.63;;;5.27;41.63
77590;BME280;66746;51.328;12.332;2023-02-28T10:45:05;101943.72;;;5.30;41.93
77590;BME280;66746;51.328;12.332;2023-02-28T10:47:48;101927.91;;;5.74;40.33
77590;BME280;66746;51.328;12.332;2023-02-28T10:50:32;101942.41;;;5.88;41.37
77590;BME280;66746;51.328;12.332;2023-02-28T10:53:14;101930.41;;;5.47;45.60
77590;BME280;66746;51.328;12.332;2023-02-28T10:55:42;101942.97;;;5.48;41.53
77590;BME280;66746;51.328;12.332;2023-02-28T10:58:20;101940.28;;;5.48;42.70
77590;BME280;66746;51.328;12.332;2023-02-28T11:00:49;101921.34;;;5.36;43.31
77590;BME280;66746;51.328;12.332;2023-02-28T11:03:24;101930.47;;;5.55;42.98
77590;BME280;66746;51.328;12.332;2023-02-28T11:05:51;101925.22;;;5.70;44.51
77590;BME280;66746;51.328;12.332;2023-02-28T11:08:18;101918.06;;;5.73;44.44
77590;BME280;66746;51.328;12.332;2023-02-28T11:10:46;101901.94;;;5.79;41.73
77590;BME280;66746;51.328;12.332;2023-02-28T11:13:17;101906.72;;;6.24;42.70
77590;BME280;66746;51.328;12.332;2023-02-28T11:15:51;101927.50;;;6.58;40.26
77590;BME280;66746;51.328;12.332;2023-02-28T11:18:23;101931.06;;;6.51;40.54
77590;BME280;66746;51.328;12.332;2023-02-28T11:20:53;101883.34;;;6.18;41.11
77590;BME280;66746;51.328;12.332;2023-02-28T11:23:20;101904.94;;;6.24;40.86
77590;BME280;66746;51.328;12.332;2023-02-28T11:25:49;101902.25;;;6.28;40.72
77590;BME280;66746;51.328;12.332;2023-02-28T11:28:25;101892.41;;;6.39;40.92
77590;BME280;66746;51.328;12.332;2023-02-28T11:31:05;101912.84;;;5.94;40.68
77590;BME280;66746;51.328;12.332;2023-02-28T11:33:41;101909.28;;;5.98;41.48
77590;BME280;66746;51.328;12.332;2023-02-28T11:36:12;101880.56;;;5.99;39.89
77590;BME280;66746;51.328;12.332;2023-02-28T11:38:44;101895.63;;;5.74;42.51
77590;BME280;66746;51.328;12.332;2023-02-28T11:41:20;101904.84;;;6.06;40.94
77590;BME280;66746;51.328;12.332;2023-02-28T11:47:04;101912.78;;;5.87;43.28
77590;BME280;66746;51.328;12.332;2023-02-28T11:49:42;101911.81;;;5.79;41.08
77590;BME280;66746;51.328;12.332;2023-02-28T11:52:20;101913.78;;;6.02;46.32
77590;BME280;66746;51.328;12.332;2023-02-28T11:55:00;101892.28;;;6.08;44.64
77590;BME280;66746;51.328;12.332;2023-02-28T11:57:38;101867.03;;;5.91;40.85
77590;BME280;66746;51.328;12.332;2023-02-28T12:00:19;101905.63;;;5.87;42.29
77590;BME280;66746;51.328;12.332;2023-02-28T12:03:03;101893.97;;;5.90;41.51
77590;BME280;66746;51.328;12.332;2023-02-28T12:05:42;101903.88;;;6.00;41.29
77590;BME280;66746;51.328;12.332;2023-02-28T12:08:23;101887.91;;;6.36;43.22
77590;BME280;66746;51.328;12.332;2023-02-28T12:11:00;101856.53;;;6.64;41.97
77590;BME280;66746;51.328;12.332;2023-02-28T12:13:37;101862.91;;;7.02;42.33
77590;BME280;66746;51.328;12.332;2023-02-28T12:16:33;101858.41;;;6.83;40.40
77590;BME280;66746;51.328;12.332;2023-02-28T12:19:18;101884.44;;;6.85;39.96
77590;BME280;66746;51.328;12.332;2023-02-28T12:22:03;101854.75;;;6.60;42.16
77590;BME280;66746;51.328;12.332;2023-02-28T12:25:01;101877.31;;;7.16;40.20
77590;BME280;66746;51.328;12.332;2023-02-28T12:27:46;101847.63;;;6.89;39.32
77590;BME280;66746;51.328;12.332;2023-02-28T12:30:16;101873.63;;;6.66;38.82
77590;BME280;66746;51.328;12.332;2023-02-28T12:32:47;101874.53;;;6.62;39.91
77590;BME280;66746;51.328;12.332;2023-02-28T12:35:19;101879.94;;;6.80;40.27
77590;BME280;66746;51.328;12.332;2023-02-28T12:37:51;101859.16;;;6.32;41.80
77590;BME280;66746;51.328;12.332;2023-02-28T12:40:23;101863.72;;;6.50;41.11
77590;BME280;66746;51.328;12.332;2023-02-28T12:42:52;101870.91;;;6.66;39.91
77590;BME280;66746;51.328;12.332;2023-02-28T12:45:23;101851.13;;;6.55;39.91
77590;BME280;66746;51.328;12.332;2023-02-28T12:47:52;101838.56;;;6.66;38.40
77590;BME280;66746;51.328;12.332;2023-02-28T12:50:24;101832.28;;;6.70;39.27
77590;BME280;66746;51.328;12.332;2023-02-28T12:52:59;101857.41;;;6.48;42.17
77590;BME280;66746;51.328;12.332;2023-02-28T12:55:35;101849.34;;;6.51;41.17
77590;BME280;66746;51.328;12.332;2023-02-28T12:58:14;101844.91;;;6.77;40.84
77590;BME280;66746;51.328;12.332;2023-02-28T13:01:02;101826.94;;;6.89;40.79
77590;BME280;66746;51.328;12.332;2023-02-28T13:03:47;101808.94;;;6.72;39.89
77590;BME280;66746;51.328;12.332;2023-02-28T13:06:39;101843.94;;;6.42;40.95
77590;BME280;66746;51.328;12.332;2023-02-28T13:09:13;101834.09;;;6.62;44.11